createdAt,value
2023-05-10T00:00:21.745Z,15.10
2023-05-10T00:02:50.025Z,15.00
2023-05-10T00:05:17.963Z,15.00
2023-05-10T00:07:48.583Z,15.00
2023-05-10T00:10:16.887Z,15.00
2023-05-10T00:12:44.834Z,15.00
2023-05-10T00:15:12.994Z,15.00
2023-05-10T00:17:41.405Z,14.90
2023-05-10T00:20:09.768Z,14.90
2023-05-10T00:22:37.660Z,14.90
2023-05-10T00:25:06.360Z,14.90
2023-05-10T00:27:34.312Z,14.90
2023-05-10T00:30:02.239Z,14.90
2023-05-10T00:32:31.152Z,14.80
2023-05-10T00:34:59.906Z,14.80
2023-05-10T00:37:28.833Z,14.80
2023-05-10T00:39:56.600Z,14.80
2023-05-10T00:42:24.785Z,14.80
2023-05-10T00:44:54.921Z,14.80
2023-05-10T00:47:23.353Z,14.80
2023-05-10T00:49:51.764Z,14.70
2023-05-10T00:52:19.876Z,14.70
2023-05-10T00:54:49.767Z,14.70
2023-05-10T00:57:18.183Z,14.70
2023-05-10T00:59:46.012Z,14.70
2023-05-10T01:02:15.151Z,14.70
2023-05-10T01:04:44.121Z,14.70
2023-05-10T01:07:12.367Z,14.70
2023-05-10T01:09:40.413Z,14.70
2023-05-10T01:12:09.063Z,14.70
2023-05-10T01:14:37.729Z,14.70
2023-05-10T01:17:07.540Z,14.70
2023-05-10T01:19:40.592Z,14.60
2023-05-10T01:22:17.437Z,14.60
2023-05-10T01:25:19.340Z,14.60
2023-05-10T01:27:58.606Z,14.60
2023-05-10T01:31:11.251Z,14.60
2023-05-10T01:33:43.168Z,14.60
2023-05-10T01:36:47.127Z,14.50
2023-05-10T01:39:16.012Z,14.50
2023-05-10T01:41:51.163Z,14.50
2023-05-10T01:44:39.096Z,14.50
2023-05-10T01:47:18.808Z,14.50
2023-05-10T01:49:52.679Z,14.50
2023-05-10T01:52:27.637Z,14.40
2023-05-10T01:55:04.664Z,14.50
2023-05-10T01:57:37.221Z,14.40
2023-05-10T02:00:08.197Z,14.40
2023-05-10T02:02:46.706Z,14.40
2023-05-10T02:05:16.201Z,14.40
2023-05-10T02:07:45.030Z,14.40
2023-05-10T02:10:15.441Z,14.40
2023-05-10T02:12:46.290Z,14.40
2023-05-10T02:15:18.826Z,14.40
2023-05-10T02:17:49.278Z,14.40
2023-05-10T02:20:20.209Z,14.40
2023-05-10T02:22:52.993Z,14.30
2023-05-10T02:25:22.935Z,14.40
2023-05-10T02:27:51.524Z,14.40
2023-05-10T02:30:20.816Z,14.40
2023-05-10T02:32:52.398Z,14.40
2023-05-10T02:35:20.985Z,14.40
2023-05-10T02:37:50.162Z,14.40
2023-05-10T02:40:19.389Z,14.50
2023-05-10T02:42:50.470Z,14.50
2023-05-10T02:45:22.502Z,14.50
2023-05-10T02:47:51.848Z,14.50
2023-05-10T02:50:24.012Z,14.50
2023-05-10T02:52:56.358Z,14.50
2023-05-10T02:55:35.450Z,14.50
2023-05-10T02:58:05.204Z,14.50
2023-05-10T03:00:33.911Z,14.50
2023-05-10T03:03:04.034Z,14.50
2023-05-10T03:05:33.344Z,14.50
2023-05-10T03:08:05.801Z,14.50
2023-05-10T03:10:39.873Z,14.50
2023-05-10T03:13:19.088Z,14.50
2023-05-10T03:15:52.842Z,14.60
2023-05-10T03:18:25.071Z,14.50
2023-05-10T03:21:00.891Z,14.50
2023-05-10T03:23:31.420Z,14.50
2023-05-10T03:26:01.150Z,14.50
2023-05-10T03:28:30.435Z,14.50
2023-05-10T03:30:59.728Z,14.40
2023-05-10T03:33:27.631Z,14.40
2023-05-10T03:35:56.910Z,14.40
2023-05-10T03:38:25.032Z,14.40
2023-05-10T03:40:53.086Z,14.40
2023-05-10T03:43:21.080Z,14.30
2023-05-10T03:45:49.404Z,14.30
2023-05-10T03:48:17.459Z,14.30
2023-05-10T03:50:46.001Z,14.30
2023-05-10T03:53:14.138Z,14.30
2023-05-10T03:55:42.172Z,14.20
2023-05-10T03:58:12.938Z,14.20
2023-05-10T04:00:45.202Z,14.20
2023-05-10T04:03:15.648Z,14.20
2023-05-10T04:05:43.990Z,14.20
2023-05-10T04:08:12.010Z,14.20
2023-05-10T04:10:40.134Z,14.30
2023-05-10T04:13:07.937Z,14.30
2023-05-10T04:15:37.233Z,14.30
2023-05-10T04:18:07.270Z,14.40
2023-05-10T04:20:36.572Z,14.40
2023-05-10T04:23:04.539Z,14.40
2023-05-10T04:25:35.474Z,14.40
2023-05-10T04:28:03.551Z,14.50
2023-05-10T04:30:31.608Z,14.50
2023-05-10T04:32:59.823Z,14.60
2023-05-10T04:35:29.713Z,14.60
2023-05-10T04:37:58.391Z,14.70
2023-05-10T04:40:27.319Z,14.70
2023-05-10T04:42:55.848Z,14.80
2023-05-10T04:45:23.846Z,14.80
2023-05-10T04:47:51.816Z,15.00
2023-05-10T04:50:20.542Z,15.00
2023-05-10T04:52:48.700Z,15.10
2023-05-10T04:55:16.542Z,15.20
2023-05-10T04:57:44.659Z,15.30
2023-05-10T05:00:13.923Z,15.40
2023-05-10T05:02:46.982Z,15.40
2023-05-10T05:05:15.235Z,15.60
2023-05-10T05:07:42.995Z,15.60
2023-05-10T05:10:11.154Z,15.70
2023-05-10T05:12:39.140Z,15.80
2023-05-10T05:15:13.226Z,15.90
2023-05-10T05:17:41.518Z,16.00
2023-05-10T05:20:10.209Z,16.10
2023-05-10T05:22:39.062Z,16.20
2023-05-10T05:25:07.567Z,16.30
2023-05-10T05:27:35.573Z,16.40
2023-05-10T05:30:03.778Z,16.50
2023-05-10T05:32:32.341Z,16.60
2023-05-10T05:35:01.476Z,16.70
2023-05-10T05:37:29.908Z,16.80
2023-05-10T05:39:57.933Z,16.90
2023-05-10T05:42:26.067Z,17.00
2023-05-10T05:44:54.006Z,17.10
2023-05-10T05:47:22.339Z,17.20
2023-05-10T05:49:50.522Z,17.20
2023-05-10T05:52:19.259Z,17.30
2023-05-10T05:54:47.139Z,17.40
2023-05-10T05:57:15.256Z,17.40
2023-05-10T05:59:45.329Z,17.50
2023-05-10T06:02:13.520Z,17.50
2023-05-10T06:04:44.400Z,17.50
2023-05-10T06:07:12.957Z,17.50
2023-05-10T06:09:41.024Z,17.50
2023-05-10T06:12:08.952Z,17.50
2023-05-10T06:14:36.958Z,17.50
2023-05-10T06:17:06.611Z,17.60
2023-05-10T06:19:34.810Z,17.60
2023-05-10T06:22:02.977Z,17.60
2023-05-10T06:24:31.204Z,17.70
2023-05-10T06:27:01.391Z,17.70
2023-05-10T06:29:29.826Z,17.80
2023-05-10T06:32:00.370Z,17.80
2023-05-10T06:34:29.174Z,17.90
2023-05-10T06:36:57.686Z,17.90
2023-05-10T06:39:25.936Z,18.00
2023-05-10T06:41:53.936Z,18.00
2023-05-10T06:44:22.121Z,18.10
2023-05-10T06:46:49.932Z,18.20
2023-05-10T06:49:18.293Z,18.30
2023-05-10T06:51:46.517Z,18.30
2023-05-10T06:54:15.014Z,18.40
2023-05-10T06:56:43.115Z,18.40
2023-05-10T06:59:11.277Z,18.30
2023-05-10T07:01:39.076Z,18.30
2023-05-10T07:04:08.832Z,18.30
2023-05-10T07:06:37.652Z,18.30
2023-05-10T07:09:05.770Z,18.40
2023-05-10T07:11:34.067Z,18.40
2023-05-10T07:14:02.264Z,18.50
2023-05-10T07:16:30.302Z,18.50
2023-05-10T07:18:58.939Z,18.60
2023-05-10T07:21:30.198Z,18.70
2023-05-10T07:23:58.624Z,18.80
2023-05-10T07:26:26.608Z,18.90
2023-05-10T07:28:54.633Z,19.00
2023-05-10T07:31:22.553Z,19.10
2023-05-10T07:33:50.835Z,19.10
2023-05-10T07:36:19.045Z,19.00
2023-05-10T07:38:47.461Z,19.10
2023-05-10T07:41:15.529Z,19.20
2023-05-10T07:43:43.858Z,19.30
2023-05-10T07:46:14.682Z,19.30
2023-05-10T07:48:43.194Z,19.50
2023-05-10T07:51:12.204Z,19.60
2023-05-10T07:53:40.424Z,19.60
2023-05-10T07:56:26.297Z,19.60
2023-05-10T07:58:55.427Z,19.70
2023-05-10T08:01:31.752Z,19.90
2023-05-10T08:03:59.993Z,19.80
2023-05-10T08:06:29.439Z,19.70
2023-05-10T08:08:58.121Z,19.40
2023-05-10T08:11:26.566Z,19.20
2023-05-10T08:13:55.217Z,19.10
2023-05-10T08:19:21.034Z,19.40
2023-05-10T08:21:49.689Z,19.60
2023-05-10T08:24:17.786Z,19.30
2023-05-10T08:26:45.639Z,19.50
2023-05-10T08:29:13.769Z,19.50
2023-05-10T08:31:41.672Z,19.70
2023-05-10T08:34:09.717Z,19.90
2023-05-10T08:36:37.890Z,19.80
2023-05-10T08:39:07.712Z,20.20
2023-05-10T08:41:41.783Z,20.30
2023-05-10T08:44:09.977Z,20.50
2023-05-10T08:46:41.101Z,20.40
2023-05-10T08:49:10.418Z,20.40
2023-05-10T08:51:40.914Z,20.40
2023-05-10T08:54:10.354Z,20.40
2023-05-10T08:56:38.340Z,20.40
2023-05-10T08:59:06.404Z,20.50
2023-05-10T09:01:36.719Z,20.60
2023-05-10T09:04:05.781Z,20.60
2023-05-10T09:06:34.588Z,20.70
2023-05-10T09:09:03.279Z,20.70
2023-05-10T09:11:31.449Z,20.60
2023-05-10T09:13:59.368Z,20.60
2023-05-10T09:16:27.469Z,20.60
2023-05-10T09:18:55.821Z,20.50
2023-05-10T09:21:24.016Z,20.40
2023-05-10T09:23:51.735Z,20.40
2023-05-10T09:26:24.540Z,20.10
2023-05-10T09:28:54.785Z,20.00
2023-05-10T09:31:23.641Z,19.90
2023-05-10T09:33:52.411Z,19.80
2023-05-10T09:36:20.580Z,19.60
2023-05-10T09:38:54.138Z,19.40
2023-05-10T09:41:26.392Z,19.20
2023-05-10T09:43:58.217Z,19.00
2023-05-10T09:46:26.616Z,18.90
2023-05-10T09:48:54.515Z,18.80
2023-05-10T09:51:28.357Z,18.80
2023-05-10T09:54:17.111Z,18.80
2023-05-10T09:56:45.138Z,18.90
2023-05-10T09:59:14.359Z,18.90
2023-05-10T10:01:42.810Z,19.10
2023-05-10T10:04:12.429Z,19.30
2023-05-10T10:06:41.434Z,19.40
2023-05-10T10:09:10.652Z,19.40
2023-05-10T10:11:40.253Z,19.40
2023-05-10T10:14:08.129Z,19.40
2023-05-10T10:16:36.485Z,19.30
2023-05-10T10:19:04.549Z,19.40
2023-05-10T10:21:34.257Z,19.40
2023-05-10T10:24:02.608Z,19.30
2023-05-10T10:26:32.002Z,19.30
2023-05-10T10:29:24.123Z,19.30
2023-05-10T10:32:22.332Z,19.30
2023-05-10T10:34:51.011Z,19.30
2023-05-10T10:37:19.286Z,19.40
2023-05-10T10:39:51.373Z,19.40
2023-05-10T10:42:45.661Z,19.50
2023-05-10T10:45:14.975Z,19.40
2023-05-10T10:47:44.705Z,19.40
2023-05-10T10:50:14.441Z,19.50
2023-05-10T10:52:43.142Z,19.40
2023-05-10T10:55:26.461Z,19.50
2023-05-10T10:58:05.878Z,19.60
2023-05-10T11:00:38.228Z,19.60
2023-05-10T11:03:14.844Z,19.60
2023-05-10T11:05:49.035Z,19.50
2023-05-10T11:08:20.967Z,19.50
2023-05-10T11:11:08.541Z,19.40
2023-05-10T11:13:43.833Z,19.40
2023-05-10T11:16:26.072Z,19.40
2023-05-10T11:19:06.159Z,19.40
2023-05-10T11:21:35.733Z,19.40
2023-05-10T11:24:07.463Z,19.40
2023-05-10T11:26:39.080Z,19.40
2023-05-10T11:29:07.346Z,19.30
2023-05-10T11:31:35.555Z,19.40
2023-05-10T11:34:03.742Z,19.40
2023-05-10T11:36:37.398Z,19.40
2023-05-10T11:39:07.241Z,19.60
2023-05-10T11:41:35.182Z,19.70
2023-05-10T11:44:03.856Z,19.90
2023-05-10T11:46:32.001Z,20.00
2023-05-10T11:49:05.763Z,20.00
2023-05-10T11:51:37.186Z,20.10
2023-05-10T11:54:13.968Z,20.40
2023-05-10T11:56:42.672Z,20.80
2023-05-10T11:59:10.711Z,21.20
2023-05-10T12:01:38.918Z,21.40
2023-05-10T12:04:07.185Z,21.50
2023-05-10T12:06:41.988Z,21.70
2023-05-10T12:09:10.266Z,21.70
2023-05-10T12:11:44.262Z,21.70
2023-05-10T12:14:12.938Z,21.90
2023-05-10T12:16:41.355Z,22.10
2023-05-10T12:19:09.830Z,22.10
2023-05-10T12:21:40.210Z,22.00
2023-05-10T12:24:09.681Z,22.10
2023-05-10T12:29:20.775Z,22.40
2023-05-10T12:31:57.099Z,22.70
2023-05-10T12:34:32.423Z,22.70
2023-05-10T12:37:01.148Z,22.30
2023-05-10T12:39:41.530Z,22.30
2023-05-10T12:42:10.278Z,21.90
2023-05-10T12:44:40.767Z,21.20
2023-05-10T12:47:08.961Z,20.90
2023-05-10T12:49:36.734Z,20.60
2023-05-10T12:52:04.770Z,20.40
2023-05-10T12:54:32.675Z,20.30
2023-05-10T12:57:00.825Z,20.20
2023-05-10T12:59:28.609Z,20.20
2023-05-10T13:01:56.781Z,20.10
2023-05-10T13:04:24.669Z,20.00
2023-05-10T13:06:59.964Z,19.90
2023-05-10T13:09:30.780Z,20.00
2023-05-10T13:11:58.870Z,20.10
2023-05-10T13:14:27.239Z,20.10
2023-05-10T13:16:55.609Z,20.10
2023-05-10T13:19:23.715Z,20.00
2023-05-10T13:21:51.841Z,20.00
2023-05-10T13:24:19.568Z,19.80
2023-05-10T13:26:47.726Z,19.60
2023-05-10T13:29:18.697Z,19.50
2023-05-10T13:31:47.295Z,19.40
2023-05-10T13:34:15.078Z,19.40
2023-05-10T13:36:43.500Z,19.40
2023-05-10T13:39:11.354Z,19.30
2023-05-10T13:41:39.653Z,19.30
2023-05-10T13:44:07.471Z,19.40
2023-05-10T13:46:35.610Z,19.30
2023-05-10T13:49:03.391Z,19.30
2023-05-10T13:51:33.289Z,19.10
2023-05-10T13:54:01.276Z,19.00
2023-05-10T13:56:29.450Z,19.00
2023-05-10T13:58:59.671Z,19.00
2023-05-10T14:01:28.282Z,19.00
2023-05-10T14:03:56.262Z,19.00
2023-05-10T14:06:24.183Z,19.00
2023-05-10T14:08:52.058Z,18.90
2023-05-10T14:11:20.645Z,18.80
2023-05-10T14:13:49.706Z,18.80
2023-05-10T14:16:17.708Z,18.70
2023-05-10T14:18:46.196Z,18.60
2023-05-10T14:21:14.580Z,18.40
2023-05-10T14:23:42.223Z,18.30
2023-05-10T14:26:10.710Z,18.20
2023-05-10T14:28:38.463Z,18.20
2023-05-10T14:31:06.854Z,18.20
2023-05-10T14:33:34.718Z,18.20
2023-05-10T14:36:04.522Z,18.40
2023-05-10T14:38:32.605Z,18.50
2023-05-10T14:41:00.595Z,18.60
2023-05-10T14:43:29.258Z,18.80
2023-05-10T14:45:56.875Z,18.80
2023-05-10T14:48:24.890Z,18.90
2023-05-10T14:50:53.915Z,19.10
2023-05-10T14:53:21.875Z,19.20
2023-05-10T14:55:49.752Z,19.20
2023-05-10T14:58:17.932Z,19.20
2023-05-10T15:00:45.742Z,19.30
2023-05-10T15:03:14.568Z,19.20
2023-05-10T15:05:42.569Z,19.20
2023-05-10T15:08:10.704Z,19.10
2023-05-10T15:10:38.462Z,19.00
2023-05-10T15:13:06.750Z,18.90
2023-05-10T15:15:34.557Z,18.90
2023-05-10T15:18:03.153Z,18.90
2023-05-10T15:20:31.451Z,19.00
2023-05-10T15:22:59.639Z,19.00
2023-05-10T15:25:27.664Z,19.00
2023-05-10T15:27:55.974Z,18.90
2023-05-10T15:30:23.946Z,18.90
2023-05-10T15:32:52.190Z,18.90
2023-05-10T15:35:20.342Z,18.80
2023-05-10T15:37:49.732Z,18.70
2023-05-10T15:40:17.666Z,18.50
2023-05-10T15:42:45.965Z,18.40
2023-05-10T15:45:14.564Z,18.30
2023-05-10T15:47:46.067Z,18.20
2023-05-10T15:50:14.306Z,18.10
2023-05-10T15:52:42.880Z,18.00
2023-05-10T15:55:13.963Z,17.90
2023-05-10T15:57:44.049Z,17.90
2023-05-10T16:00:13.671Z,17.80
2023-05-10T16:02:42.722Z,17.70
2023-05-10T16:05:11.616Z,17.60
2023-05-10T16:07:40.915Z,17.60
2023-05-10T16:10:11.284Z,17.50
2023-05-10T16:12:39.958Z,17.40
2023-05-10T16:15:09.168Z,17.40
2023-05-10T16:17:37.987Z,17.40
2023-05-10T16:20:06.888Z,17.40
2023-05-10T16:22:36.225Z,17.40
2023-05-10T16:25:04.138Z,17.40
2023-05-10T16:27:33.968Z,17.30
2023-05-10T16:30:02.154Z,17.30
2023-05-10T16:32:30.240Z,17.20
2023-05-10T16:34:59.299Z,17.20
2023-05-10T16:37:27.795Z,17.10
2023-05-10T16:39:55.648Z,17.10
2023-05-10T16:42:24.811Z,17.00
2023-05-10T16:44:52.994Z,17.00
2023-05-10T16:47:21.125Z,16.90
2023-05-10T16:49:49.920Z,16.90
2023-05-10T16:52:21.126Z,16.90
2023-05-10T16:54:49.324Z,16.90
2023-05-10T16:57:17.300Z,16.90
2023-05-10T16:59:45.347Z,16.90
2023-05-10T17:02:13.405Z,16.90
2023-05-10T17:04:43.260Z,16.90
2023-05-10T17:07:12.543Z,17.00
2023-05-10T17:09:44.462Z,16.90
2023-05-10T17:12:12.679Z,16.90
2023-05-10T17:14:40.746Z,16.90
2023-05-10T17:17:08.883Z,17.00
2023-05-10T17:19:36.842Z,16.90
2023-05-10T17:22:05.274Z,16.90
2023-05-10T17:24:33.431Z,16.90
2023-05-10T17:27:03.887Z,16.90
2023-05-10T17:29:32.609Z,16.90
2023-05-10T17:32:00.658Z,16.90
2023-05-10T17:34:28.963Z,16.90
2023-05-10T17:36:57.788Z,16.90
2023-05-10T17:39:25.869Z,16.90
2023-05-10T17:41:53.814Z,16.90
2023-05-10T17:44:21.877Z,16.90
2023-05-10T17:46:49.689Z,16.90
2023-05-10T17:49:17.734Z,16.90
2023-05-10T17:51:48.336Z,16.90
2023-05-10T17:54:16.334Z,16.90
2023-05-10T17:56:44.310Z,16.90
2023-05-10T17:59:12.397Z,16.90
2023-05-10T18:01:40.705Z,16.90
2023-05-10T18:04:08.948Z,16.80
2023-05-10T18:06:37.983Z,16.80
2023-05-10T18:09:07.654Z,16.70
2023-05-10T18:11:37.080Z,16.70
2023-05-10T18:14:05.106Z,16.70
2023-05-10T18:16:33.215Z,16.60
2023-05-10T18:19:01.816Z,16.60
2023-05-10T18:21:30.091Z,16.60
2023-05-10T18:23:58.090Z,16.60
2023-05-10T18:26:26.749Z,16.60
2023-05-10T18:28:54.718Z,16.60
2023-05-10T18:31:22.889Z,16.60
2023-05-10T18:33:51.057Z,16.50
2023-05-10T18:36:19.030Z,16.50
2023-05-10T18:38:46.842Z,16.60
2023-05-10T18:41:15.326Z,16.60
2023-05-10T18:43:43.359Z,16.50
2023-05-10T18:46:11.570Z,16.50
2023-05-10T18:48:39.845Z,16.40
2023-05-10T18:51:07.890Z,16.30
2023-05-10T18:53:35.813Z,16.30
2023-05-10T18:56:03.933Z,16.30
2023-05-10T18:58:32.090Z,16.30
2023-05-10T19:01:00.138Z,16.20
2023-05-10T19:03:30.551Z,16.20
2023-05-10T19:05:59.338Z,16.20
2023-05-10T19:08:27.257Z,16.20
2023-05-10T19:10:55.503Z,16.10
2023-05-10T19:13:25.203Z,16.10
2023-05-10T19:16:23.252Z,16.10
2023-05-10T19:18:54.215Z,16.10
2023-05-10T19:21:26.846Z,16.10
2023-05-10T19:23:57.790Z,16.00
2023-05-10T19:26:26.525Z,16.00
2023-05-10T19:28:55.296Z,16.00
2023-05-10T19:31:24.094Z,15.90
2023-05-10T19:33:53.560Z,15.90
2023-05-10T19:36:22.955Z,15.90
2023-05-10T19:38:56.846Z,15.90
2023-05-10T19:41:26.434Z,15.80
2023-05-10T19:43:55.869Z,15.80
2023-05-10T19:46:27.515Z,15.80
2023-05-10T19:48:55.754Z,15.80
2023-05-10T19:51:27.681Z,15.80
2023-05-10T19:53:57.274Z,15.80
2023-05-10T19:56:27.443Z,15.80
2023-05-10T19:58:55.694Z,15.80
2023-05-10T20:01:23.584Z,15.70
2023-05-10T20:03:52.080Z,15.70
2023-05-10T20:06:21.198Z,15.80
2023-05-10T20:08:50.892Z,15.70
2023-05-10T20:11:18.631Z,15.70
2023-05-10T20:13:47.092Z,15.60
2023-05-10T20:16:15.765Z,15.60
2023-05-10T20:18:46.765Z,15.60
2023-05-10T20:21:18.291Z,15.60
2023-05-10T20:23:47.115Z,15.70
2023-05-10T20:26:16.117Z,15.70
2023-05-10T20:28:44.188Z,15.70
2023-05-10T20:31:13.259Z,15.70
2023-05-10T20:33:41.422Z,15.70
2023-05-10T20:36:11.770Z,15.70
2023-05-10T20:38:40.265Z,15.70
2023-05-10T20:41:09.156Z,15.70
2023-05-10T20:43:37.380Z,15.70
2023-05-10T20:46:06.143Z,15.80
2023-05-10T20:48:34.559Z,15.80
2023-05-10T20:51:03.505Z,15.80
2023-05-10T20:53:31.793Z,15.80
2023-05-10T20:55:59.897Z,15.80
2023-05-10T20:58:28.055Z,15.80
2023-05-10T21:00:56.205Z,15.80
2023-05-10T21:03:24.273Z,15.80
2023-05-10T21:05:51.897Z,15.70
2023-05-10T21:08:21.289Z,15.70
2023-05-10T21:10:52.069Z,15.70
2023-05-10T21:13:24.237Z,15.70
2023-05-10T21:15:57.136Z,15.70
2023-05-10T21:18:27.673Z,15.60
2023-05-10T21:20:55.617Z,15.60
2023-05-10T21:23:27.122Z,15.60
2023-05-10T21:25:56.302Z,15.60
2023-05-10T21:28:24.854Z,15.60
2023-05-10T21:30:52.804Z,15.60
2023-05-10T21:33:21.175Z,15.60
2023-05-10T21:35:48.955Z,15.60
2023-05-10T21:38:17.434Z,15.70
2023-05-10T21:40:45.325Z,15.60
2023-05-10T21:43:13.333Z,15.60
2023-05-10T21:45:41.254Z,15.50
2023-05-10T21:48:09.321Z,15.40
2023-05-10T21:50:37.233Z,15.40
2023-05-10T21:53:05.390Z,15.40
2023-05-10T21:55:34.632Z,15.40
2023-05-10T21:58:02.566Z,15.40
2023-05-10T22:00:31.661Z,15.40
2023-05-10T22:03:00.928Z,15.40
2023-05-10T22:05:28.897Z,15.30
2023-05-10T22:07:56.749Z,15.30
2023-05-10T22:10:24.928Z,15.40
2023-05-10T22:12:53.250Z,15.30
2023-05-10T22:15:20.884Z,15.30
2023-05-10T22:17:49.082Z,15.40
2023-05-10T22:20:17.589Z,15.30
2023-05-10T22:22:46.320Z,15.30
2023-05-10T22:25:13.870Z,15.30
2023-05-10T22:27:41.802Z,15.30
2023-05-10T22:30:10.205Z,15.20
2023-05-10T22:32:38.421Z,15.20
2023-05-10T22:35:06.783Z,15.20
2023-05-10T22:37:35.027Z,15.20
2023-05-10T22:40:02.961Z,15.20
2023-05-10T22:42:31.320Z,15.20
2023-05-10T22:44:59.343Z,15.20
2023-05-10T22:47:27.350Z,15.20
2023-05-10T22:49:56.184Z,15.20
2023-05-10T22:52:24.877Z,15.10
2023-05-10T22:54:52.844Z,15.10
2023-05-10T22:57:20.729Z,15.10
2023-05-10T22:59:49.499Z,15.10
2023-05-10T23:02:17.528Z,15.10
2023-05-10T23:04:45.304Z,15.10
2023-05-10T23:07:14.796Z,15.10
2023-05-10T23:09:42.715Z,15.10
2023-05-10T23:12:11.135Z,15.10
2023-05-10T23:14:39.284Z,15.10
2023-05-10T23:17:07.239Z,15.10
2023-05-10T23:19:35.757Z,15.20
2023-05-10T23:22:14.572Z,15.20
2023-05-10T23:24:47.599Z,15.20
2023-05-10T23:27:17.877Z,15.20
2023-05-10T23:29:47.469Z,15.20
2023-05-10T23:32:17.434Z,15.20
2023-05-10T23:34:46.602Z,15.20
2023-05-10T23:37:18.524Z,15.20
2023-05-10T23:39:54.304Z,15.20
2023-05-10T23:42:23.606Z,15.10
2023-05-10T23:44:57.138Z,15.00
2023-05-10T23:47:25.287Z,15.00
2023-05-10T23:49:53.222Z,14.90
2023-05-10T23:52:26.061Z,14.80
2023-05-10T23:54:54.674Z,14.80
2023-05-10T23:57:22.589Z,14.80
2023-05-10T23:59:50.717Z,14.70
